createdAt,value
2023-03-14T00:00:06.915Z,12.10
2023-03-14T00:01:13.926Z,12.10
2023-03-14T00:02:15.633Z,12.10
2023-03-14T00:03:17.477Z,12.10
2023-03-14T00:04:19.491Z,12.10
2023-03-14T00:05:21.651Z,12.10
2023-03-14T00:06:23.952Z,12.10
2023-03-14T00:07:25.800Z,12.10
2023-03-14T00:08:27.561Z,12.10
2023-03-14T00:09:30.783Z,12.10
2023-03-14T00:10:32.526Z,12.10
2023-03-14T00:11:34.459Z,12.10
2023-03-14T00:12:36.486Z,12.10
2023-03-14T00:13:41.228Z,12.10
2023-03-14T00:14:43.981Z,12.10
2023-03-14T00:15:45.800Z,12.10
2023-03-14T00:16:47.854Z,12.10
2023-03-14T00:17:49.573Z,12.10
2023-03-14T00:18:51.393Z,12.10
2023-03-14T00:19:54.890Z,12.10
2023-03-14T00:21:00.102Z,12.10
2023-03-14T00:22:01.853Z,12.10
2023-03-14T00:23:03.952Z,12.10
2023-03-14T00:24:06.811Z,12.10
2023-03-14T00:25:10.775Z,12.10
2023-03-14T00:26:15.577Z,12.10
2023-03-14T00:27:17.312Z,12.10
2023-03-14T00:28:19.882Z,12.10
2023-03-14T00:29:23.211Z,12.10
2023-03-14T00:30:24.990Z,12.10
2023-03-14T00:31:26.893Z,12.00
2023-03-14T00:32:28.966Z,12.00
2023-03-14T00:33:30.965Z,12.00
2023-03-14T00:34:33.459Z,12.00
2023-03-14T00:35:35.972Z,11.90
2023-03-14T00:36:37.683Z,11.90
2023-03-14T00:37:39.407Z,11.90
2023-03-14T00:38:42.787Z,11.90
2023-03-14T00:39:44.748Z,11.90
2023-03-14T00:40:46.628Z,11.90
2023-03-14T00:41:48.613Z,11.90
2023-03-14T00:42:50.334Z,11.90
2023-03-14T00:43:52.727Z,11.90
2023-03-14T00:44:55.477Z,11.90
2023-03-14T00:45:58.283Z,11.90
2023-03-14T00:47:02.417Z,11.90
2023-03-14T00:48:04.410Z,11.90
2023-03-14T00:49:06.107Z,11.90
2023-03-14T00:50:08.327Z,11.90
2023-03-14T00:51:10.690Z,11.90
2023-03-14T00:52:12.590Z,11.90
2023-03-14T00:53:14.384Z,11.90
2023-03-14T00:54:16.257Z,11.90
2023-03-14T00:55:18.043Z,11.90
2023-03-14T00:56:19.799Z,11.80
2023-03-14T00:57:21.602Z,11.80
2023-03-14T00:58:23.426Z,11.80
2023-03-14T00:59:25.155Z,11.80
2023-03-14T01:00:26.868Z,11.80
2023-03-14T01:01:28.695Z,11.80
2023-03-14T01:02:30.691Z,11.80
2023-03-14T01:03:32.503Z,11.70
2023-03-14T01:04:35.738Z,11.70
2023-03-14T01:05:38.022Z,11.70
2023-03-14T01:06:40.485Z,11.70
2023-03-14T01:07:42.261Z,11.70
2023-03-14T01:08:45.034Z,11.60
2023-03-14T01:09:46.793Z,11.60
2023-03-14T01:10:48.510Z,11.60
2023-03-14T01:11:50.269Z,11.60
2023-03-14T01:12:52.687Z,11.50
2023-03-14T01:13:55.325Z,11.50
2023-03-14T01:14:57.247Z,11.40
2023-03-14T01:16:06.141Z,11.40
2023-03-14T01:17:07.936Z,11.30
2023-03-14T01:18:09.790Z,11.20
2023-03-14T01:19:12.619Z,11.20
2023-03-14T01:20:15.934Z,11.10
2023-03-14T01:21:22.447Z,10.90
2023-03-14T01:22:24.278Z,10.90
2023-03-14T01:23:26.272Z,10.70
2023-03-14T01:24:28.139Z,10.70
2023-03-14T01:25:31.055Z,10.60
2023-03-14T01:26:35.284Z,10.60
2023-03-14T01:27:37.274Z,10.50
2023-03-14T01:28:39.653Z,10.40
2023-03-14T01:29:41.416Z,10.40
2023-03-14T01:30:43.666Z,10.30
2023-03-14T01:31:45.557Z,10.30
2023-03-14T01:32:47.525Z,10.30
2023-03-14T01:33:49.598Z,10.30
2023-03-14T01:34:51.607Z,10.20
2023-03-14T01:35:53.541Z,10.20
2023-03-14T01:36:55.467Z,10.10
2023-03-14T01:37:57.210Z,10.10
2023-03-14T01:38:59.529Z,10.10
2023-03-14T01:40:02.261Z,10.10
2023-03-14T01:41:04.479Z,10.10
2023-03-14T01:42:06.218Z,10.00
2023-03-14T01:43:16.596Z,10.00
2023-03-14T01:44:18.485Z,10.00
2023-03-14T01:45:57.979Z,10.00
2023-03-14T01:47:00.174Z,10.00
2023-03-14T01:48:02.260Z,10.00
2023-03-14T01:49:14.075Z,9.90
2023-03-14T01:50:17.826Z,10.00
2023-03-14T01:51:26.103Z,9.90
2023-03-14T01:52:36.143Z,9.90
2023-03-14T01:53:41.347Z,9.90
2023-03-14T01:54:45.265Z,9.90
2023-03-14T01:55:47.094Z,9.90
2023-03-14T01:56:58.578Z,9.90
2023-03-14T01:58:05.199Z,9.90
2023-03-14T01:59:10.218Z,9.90
2023-03-14T02:00:15.407Z,9.90
2023-03-14T02:01:20.893Z,9.90
2023-03-14T02:02:25.483Z,9.90
2023-03-14T02:03:30.274Z,9.90
2023-03-14T02:04:35.095Z,9.90
2023-03-14T02:05:41.541Z,9.90
2023-03-14T02:07:11.273Z,9.90
2023-03-14T02:08:20.911Z,9.90
2023-03-14T02:09:26.381Z,9.90
2023-03-14T02:10:32.884Z,9.80
2023-03-14T02:11:36.938Z,9.90
2023-03-14T02:12:43.679Z,9.80
2023-03-14T02:13:51.100Z,9.90
2023-03-14T02:15:11.474Z,9.90
2023-03-14T02:16:26.336Z,9.90
2023-03-14T02:18:02.737Z,9.80
2023-03-14T02:20:10.329Z,9.80
2023-03-14T02:21:50.270Z,9.80
2023-03-14T02:22:54.491Z,9.80
2023-03-14T02:24:08.000Z,9.90
2023-03-14T02:25:32.239Z,9.90
2023-03-14T02:27:08.090Z,9.90
2023-03-14T02:28:12.146Z,9.90
2023-03-14T02:29:14.545Z,9.90
2023-03-14T02:30:22.333Z,9.90
2023-03-14T02:31:25.022Z,9.90
2023-03-14T02:32:30.550Z,10.00
2023-03-14T02:33:32.504Z,10.00
2023-03-14T02:34:34.946Z,10.00
2023-03-14T02:35:47.518Z,9.90
2023-03-14T02:36:49.644Z,10.00
2023-03-14T02:38:11.482Z,10.00
2023-03-14T02:39:22.669Z,10.00
2023-03-14T02:40:24.924Z,10.00
2023-03-14T02:41:28.181Z,10.00
2023-03-14T02:42:36.733Z,10.00
2023-03-14T02:43:39.387Z,10.00
2023-03-14T02:45:00.949Z,10.10
2023-03-14T02:46:04.943Z,10.10
2023-03-14T02:47:07.329Z,10.10
2023-03-14T02:48:15.303Z,10.10
2023-03-14T02:49:18.435Z,10.10
2023-03-14T02:50:23.917Z,10.10
2023-03-14T02:51:28.413Z,10.10
2023-03-14T02:52:30.573Z,10.10
2023-03-14T02:53:35.322Z,10.10
2023-03-14T02:54:42.177Z,10.10
2023-03-14T02:55:48.556Z,10.10
2023-03-14T02:56:52.234Z,10.10
2023-03-14T02:57:54.219Z,10.10
2023-03-14T02:58:56.104Z,10.10
2023-03-14T03:00:21.782Z,10.10
2023-03-14T03:01:23.642Z,10.10
2023-03-14T03:02:25.494Z,10.10
2023-03-14T03:03:27.915Z,10.10
2023-03-14T03:04:29.657Z,10.10
2023-03-14T03:05:31.361Z,10.10
2023-03-14T03:06:33.125Z,10.10
2023-03-14T03:07:36.072Z,10.10
2023-03-14T03:08:37.868Z,10.10
2023-03-14T03:09:39.555Z,10.10
2023-03-14T03:10:41.454Z,10.10
2023-03-14T03:11:43.226Z,10.10
2023-03-14T03:12:50.203Z,10.10
2023-03-14T03:13:52.426Z,10.10
2023-03-14T03:14:54.686Z,10.10
2023-03-14T03:15:56.646Z,10.10
2023-03-14T03:16:58.453Z,10.10
2023-03-14T03:18:00.269Z,10.10
2023-03-14T03:19:02.029Z,10.10
2023-03-14T03:20:05.846Z,10.20
2023-03-14T03:21:09.883Z,10.10
2023-03-14T03:22:11.988Z,10.20
2023-03-14T03:23:16.489Z,10.20
2023-03-14T03:24:18.209Z,10.20
2023-03-14T03:25:20.005Z,10.20
2023-03-14T03:26:21.820Z,10.20
2023-03-14T03:27:23.615Z,10.20
2023-03-14T03:28:25.448Z,10.20
2023-03-14T03:29:27.796Z,10.20
2023-03-14T03:30:30.050Z,10.20
2023-03-14T03:31:31.999Z,10.20
2023-03-14T03:32:33.981Z,10.20
2023-03-14T03:33:37.819Z,10.30
2023-03-14T03:34:39.844Z,10.30
2023-03-14T03:35:50.310Z,10.30
2023-03-14T03:36:59.030Z,10.30
2023-03-14T03:38:02.839Z,10.30
2023-03-14T03:39:05.265Z,10.30
2023-03-14T03:40:08.100Z,10.30
2023-03-14T03:41:10.903Z,10.30
2023-03-14T03:42:12.706Z,10.30
2023-03-14T03:43:14.490Z,10.30
2023-03-14T03:44:19.158Z,10.30
2023-03-14T03:45:20.981Z,10.30
2023-03-14T03:46:27.961Z,10.30
2023-03-14T03:47:31.671Z,10.30
2023-03-14T03:48:33.611Z,10.40
2023-03-14T03:49:38.247Z,10.40
2023-03-14T03:50:48.225Z,10.40
2023-03-14T03:51:53.417Z,10.40
2023-03-14T03:52:55.270Z,10.40
2023-03-14T03:53:58.130Z,10.40
2023-03-14T03:55:05.213Z,10.40
2023-03-14T03:56:07.434Z,10.40
2023-03-14T03:57:09.559Z,10.40
2023-03-14T03:58:11.304Z,10.50
2023-03-14T03:59:13.042Z,10.50
2023-03-14T04:00:14.995Z,10.50
2023-03-14T04:01:16.793Z,10.50
2023-03-14T04:02:22.368Z,10.50
2023-03-14T04:03:26.838Z,10.50
2023-03-14T04:04:31.019Z,10.50
2023-03-14T04:05:32.848Z,10.50
2023-03-14T04:06:39.334Z,10.50
2023-03-14T04:07:41.239Z,10.50
2023-03-14T04:08:44.429Z,10.50
2023-03-14T04:09:55.441Z,10.60
2023-03-14T04:11:17.182Z,10.60
2023-03-14T04:12:44.613Z,10.60
2023-03-14T04:13:50.449Z,10.60
2023-03-14T04:14:52.188Z,10.60
2023-03-14T04:15:57.623Z,10.60
2023-03-14T04:17:01.920Z,10.60
2023-03-14T04:18:05.193Z,10.60
2023-03-14T04:19:07.245Z,10.60
2023-03-14T04:20:11.725Z,10.60
2023-03-14T04:21:13.658Z,10.60
2023-03-14T04:22:22.412Z,10.60
2023-03-14T04:23:26.446Z,10.70
2023-03-14T04:24:28.298Z,10.70
2023-03-14T04:25:32.078Z,10.70
2023-03-14T04:26:36.006Z,10.70
2023-03-14T04:27:37.740Z,10.70
2023-03-14T04:28:44.817Z,10.70
2023-03-14T04:29:46.625Z,10.70
2023-03-14T04:30:51.252Z,10.70
2023-03-14T04:31:56.961Z,10.70
2023-03-14T04:32:59.064Z,10.70
2023-03-14T04:34:02.519Z,10.70
2023-03-14T04:35:10.485Z,10.70
2023-03-14T04:36:12.674Z,10.70
2023-03-14T04:37:14.561Z,10.70
2023-03-14T04:38:19.261Z,10.70
2023-03-14T04:39:22.544Z,10.70
2023-03-14T04:40:30.889Z,10.70
2023-03-14T04:41:36.940Z,10.70
2023-03-14T04:42:39.178Z,10.70
2023-03-14T04:43:41.141Z,10.70
2023-03-14T04:44:47.819Z,10.80
2023-03-14T04:45:50.089Z,10.70
2023-03-14T04:46:52.999Z,10.70
2023-03-14T04:47:54.938Z,10.80
2023-03-14T04:48:57.669Z,10.80
2023-03-14T04:49:59.612Z,10.70
2023-03-14T04:51:01.771Z,10.80
2023-03-14T04:52:07.021Z,10.70
2023-03-14T04:53:11.433Z,10.80
2023-03-14T04:54:15.279Z,10.80
2023-03-14T04:55:17.300Z,10.80
2023-03-14T04:56:19.099Z,10.80
2023-03-14T04:57:20.997Z,10.80
2023-03-14T04:58:24.746Z,10.80
2023-03-14T04:59:28.138Z,10.80
2023-03-14T05:00:34.111Z,10.80
2023-03-14T05:01:36.550Z,10.80
2023-03-14T05:02:55.951Z,10.80
2023-03-14T05:04:06.361Z,10.80
2023-03-14T05:05:25.435Z,10.80
2023-03-14T05:06:45.753Z,10.70
2023-03-14T05:08:00.700Z,10.70
2023-03-14T05:09:22.509Z,10.70
2023-03-14T05:10:58.383Z,10.60
2023-03-14T05:12:09.428Z,10.60
2023-03-14T05:13:28.591Z,10.50
2023-03-14T05:14:41.046Z,10.50
2023-03-14T05:16:05.370Z,10.40
2023-03-14T05:17:42.624Z,10.40
2023-03-14T05:18:47.034Z,10.30
2023-03-14T05:20:16.684Z,10.20
2023-03-14T05:21:47.540Z,10.20
2023-03-14T05:23:07.608Z,10.10
2023-03-14T05:24:35.363Z,10.10
2023-03-14T05:25:52.078Z,10.00
2023-03-14T05:27:08.735Z,10.00
2023-03-14T05:28:20.403Z,9.90
2023-03-14T05:29:42.534Z,9.90
2023-03-14T05:31:07.640Z,9.90
2023-03-14T05:32:36.046Z,9.80
2023-03-14T05:33:53.992Z,9.80
2023-03-14T05:35:13.556Z,9.80
2023-03-14T05:36:23.294Z,9.70
2023-03-14T05:37:47.630Z,9.70
2023-03-14T05:39:27.574Z,9.70
2023-03-14T05:40:46.212Z,9.70
2023-03-14T05:42:14.550Z,9.60
2023-03-14T05:43:30.225Z,9.60
2023-03-14T05:44:52.218Z,9.60
2023-03-14T05:46:18.986Z,9.60
2023-03-14T05:47:29.845Z,9.60
2023-03-14T05:48:45.406Z,9.50
2023-03-14T05:49:59.105Z,9.50
2023-03-14T05:51:30.001Z,9.50
2023-03-14T05:52:54.731Z,9.50
2023-03-14T05:54:16.989Z,9.50
2023-03-14T05:55:30.674Z,9.50
2023-03-14T05:56:50.898Z,9.50
2023-03-14T05:58:11.869Z,9.50
2023-03-14T05:59:24.247Z,9.50
2023-03-14T06:00:38.265Z,9.50
2023-03-14T06:01:56.260Z,9.50
2023-03-14T06:03:01.731Z,9.50
2023-03-14T06:04:08.035Z,9.50
2023-03-14T06:05:10.233Z,9.50
2023-03-14T06:06:12.382Z,9.50
2023-03-14T06:07:14.425Z,9.50
2023-03-14T06:08:18.008Z,9.50
2023-03-14T06:09:24.004Z,9.50
2023-03-14T06:10:27.758Z,9.50
2023-03-14T06:11:29.667Z,9.50
2023-03-14T06:12:31.682Z,9.50
2023-03-14T06:13:33.552Z,9.50
2023-03-14T06:14:35.319Z,9.50
2023-03-14T06:15:37.825Z,9.50
2023-03-14T06:16:39.978Z,9.50
2023-03-14T06:17:41.810Z,9.50
2023-03-14T06:18:47.724Z,9.50
2023-03-14T06:19:50.068Z,9.50
2023-03-14T06:20:55.828Z,9.50
2023-03-14T06:22:00.808Z,9.50
2023-03-14T06:23:02.578Z,9.50
2023-03-14T06:24:06.028Z,9.50
2023-03-14T06:25:13.404Z,9.50
2023-03-14T06:26:15.617Z,9.50
2023-03-14T06:27:17.392Z,9.50
2023-03-14T06:28:19.426Z,9.60
2023-03-14T06:29:21.260Z,9.60
2023-03-14T06:30:23.165Z,9.60
2023-03-14T06:31:24.916Z,9.60
2023-03-14T06:32:31.819Z,9.60
2023-03-14T06:33:37.760Z,9.60
2023-03-14T06:34:40.001Z,9.60
2023-03-14T06:35:41.994Z,9.60
2023-03-14T06:36:43.924Z,9.60
2023-03-14T06:37:46.114Z,9.60
2023-03-14T06:38:48.485Z,9.60
2023-03-14T06:39:50.316Z,9.60
2023-03-14T06:41:10.092Z,9.60
2023-03-14T06:42:17.845Z,9.60
2023-03-14T06:43:20.475Z,9.60
2023-03-14T06:44:22.448Z,9.60
2023-03-14T06:45:24.468Z,9.60
2023-03-14T06:46:27.851Z,9.60
2023-03-14T06:47:29.727Z,9.60
2023-03-14T06:48:31.571Z,9.60
2023-03-14T06:49:33.508Z,9.60
2023-03-14T06:50:37.265Z,9.50
2023-03-14T06:51:39.771Z,9.50
2023-03-14T06:52:48.736Z,9.50
2023-03-14T06:53:53.891Z,9.50
2023-03-14T06:54:58.470Z,9.40
2023-03-14T06:56:00.435Z,9.30
2023-03-14T06:57:04.051Z,9.30
2023-03-14T06:58:08.921Z,9.20
2023-03-14T06:59:15.934Z,9.20
2023-03-14T07:00:21.155Z,9.10
2023-03-14T07:01:26.572Z,9.00
2023-03-14T07:02:41.916Z,9.00
2023-03-14T07:03:54.765Z,9.00
2023-03-14T07:04:57.622Z,8.90
2023-03-14T07:05:59.545Z,8.90
2023-03-14T07:07:01.340Z,8.90
2023-03-14T07:08:03.314Z,8.80
2023-03-14T07:09:05.043Z,8.80
2023-03-14T07:10:09.850Z,8.80
2023-03-14T07:11:12.323Z,8.70
2023-03-14T07:12:14.507Z,8.70
2023-03-14T07:13:16.241Z,8.70
2023-03-14T07:14:26.689Z,8.70
2023-03-14T07:15:30.861Z,8.70
2023-03-14T07:16:37.539Z,8.60
2023-03-14T07:17:39.349Z,8.60
2023-03-14T07:18:41.326Z,8.60
2023-03-14T07:19:43.078Z,8.60
2023-03-14T07:20:47.074Z,8.60
2023-03-14T07:21:50.139Z,8.60
2023-03-14T07:22:56.696Z,8.60
2023-03-14T07:24:11.297Z,8.60
2023-03-14T07:25:13.215Z,8.60
2023-03-14T07:26:15.450Z,8.60
2023-03-14T07:27:22.264Z,8.60
2023-03-14T07:28:24.820Z,8.60
2023-03-14T07:29:32.936Z,8.60
2023-03-14T07:30:37.523Z,8.50
2023-03-14T07:31:46.098Z,8.50
2023-03-14T07:32:49.466Z,8.50
2023-03-14T07:33:51.426Z,8.50
2023-03-14T07:34:54.033Z,8.40
2023-03-14T07:35:55.905Z,8.40
2023-03-14T07:36:58.333Z,8.40
2023-03-14T07:38:00.302Z,8.40
2023-03-14T07:39:09.118Z,8.40
2023-03-14T07:40:13.604Z,8.40
2023-03-14T07:41:15.857Z,8.40
2023-03-14T07:42:41.526Z,8.40
2023-03-14T07:44:13.036Z,8.30
2023-03-14T07:45:15.072Z,8.30
2023-03-14T07:46:17.675Z,8.30
2023-03-14T07:47:19.602Z,8.30
2023-03-14T07:48:23.000Z,8.30
2023-03-14T07:49:24.981Z,8.30
2023-03-14T07:50:27.283Z,8.30
2023-03-14T07:51:29.055Z,8.30
2023-03-14T07:52:30.809Z,8.40
2023-03-14T07:53:32.714Z,8.40
2023-03-14T07:54:34.542Z,8.40
2023-03-14T07:55:36.491Z,8.40
2023-03-14T07:56:38.229Z,8.40
2023-03-14T07:57:39.997Z,8.40
2023-03-14T07:58:41.769Z,8.40
2023-03-14T07:59:43.800Z,8.40
2023-03-14T08:00:45.661Z,8.40
2023-03-14T08:01:47.680Z,8.40
2023-03-14T08:02:49.512Z,8.40
2023-03-14T08:03:51.527Z,8.30
2023-03-14T08:04:53.371Z,8.30
2023-03-14T08:05:55.140Z,8.30
2023-03-14T08:06:56.854Z,8.20
2023-03-14T08:07:58.561Z,8.20
2023-03-14T08:09:00.326Z,8.10
2023-03-14T08:10:02.225Z,8.10
2023-03-14T08:11:09.963Z,8.10
2023-03-14T08:12:11.825Z,8.10
2023-03-14T08:13:14.031Z,8.10
2023-03-14T08:14:16.187Z,8.10
2023-03-14T08:15:18.091Z,8.10
2023-03-14T08:16:20.305Z,8.10
2023-03-14T08:17:22.040Z,8.10
2023-03-14T08:18:26.852Z,8.10
2023-03-14T08:19:28.726Z,8.10
2023-03-14T08:20:31.854Z,8.10
2023-03-14T08:21:33.576Z,8.10
2023-03-14T08:22:35.420Z,8.10
2023-03-14T08:23:38.732Z,8.00
2023-03-14T08:24:42.360Z,8.00
2023-03-14T08:25:44.374Z,7.90
2023-03-14T08:26:46.139Z,7.90
2023-03-14T08:27:47.988Z,7.90
2023-03-14T08:28:51.241Z,7.80
2023-03-14T08:29:53.009Z,7.70
2023-03-14T08:30:56.171Z,7.70
2023-03-14T08:31:57.953Z,7.60
2023-03-14T08:32:59.909Z,7.60
2023-03-14T08:34:02.849Z,7.60
2023-03-14T08:35:07.081Z,7.60
2023-03-14T08:36:09.394Z,7.60
2023-03-14T08:37:23.787Z,7.60
2023-03-14T08:38:28.529Z,7.50
2023-03-14T08:39:30.256Z,7.50
2023-03-14T08:40:32.162Z,7.40
2023-03-14T08:41:34.213Z,7.40
2023-03-14T08:42:37.687Z,7.30
2023-03-14T08:43:40.106Z,7.30
2023-03-14T08:44:42.630Z,7.30
2023-03-14T08:45:44.405Z,7.30
2023-03-14T08:46:46.181Z,7.20
2023-03-14T08:47:48.068Z,7.20
2023-03-14T08:48:49.959Z,7.20
2023-03-14T08:49:51.719Z,7.10
2023-03-14T08:50:53.704Z,7.10
2023-03-14T08:51:55.396Z,7.10
2023-03-14T08:53:00.984Z,7.10
2023-03-14T08:54:02.765Z,7.10
2023-03-14T08:55:05.433Z,7.20
2023-03-14T08:56:10.792Z,7.20
2023-03-14T08:57:12.830Z,7.20
2023-03-14T08:58:14.573Z,7.30
2023-03-14T08:59:18.433Z,7.30
2023-03-14T09:00:22.246Z,7.40
2023-03-14T09:01:26.228Z,7.40
2023-03-14T09:02:28.787Z,7.40
2023-03-14T09:03:30.498Z,7.50
2023-03-14T09:04:33.845Z,7.50
2023-03-14T09:05:35.919Z,7.50
2023-03-14T09:06:37.658Z,7.50
2023-03-14T09:07:40.617Z,7.50
2023-03-14T09:08:42.443Z,7.50
2023-03-14T09:09:44.133Z,7.60
2023-03-14T09:10:46.006Z,7.60
2023-03-14T09:11:48.086Z,7.70
2023-03-14T09:12:49.856Z,7.70
2023-03-14T09:13:51.647Z,7.70
2023-03-14T09:14:53.376Z,7.70
2023-03-14T09:15:56.943Z,7.80
2023-03-14T09:16:59.192Z,7.80
2023-03-14T09:18:00.948Z,7.80
2023-03-14T09:19:02.747Z,7.80
2023-03-14T09:20:08.431Z,7.80
2023-03-14T09:21:10.510Z,7.80
2023-03-14T09:22:12.451Z,7.80
2023-03-14T09:23:14.145Z,7.80
2023-03-14T09:24:17.616Z,7.80
2023-03-14T09:25:19.351Z,7.80
2023-03-14T09:26:21.228Z,7.80
2023-03-14T09:27:23.029Z,7.80
2023-03-14T09:28:27.057Z,7.80
2023-03-14T09:29:29.044Z,7.80
2023-03-14T09:30:31.059Z,7.70
2023-03-14T09:31:32.939Z,7.70
2023-03-14T09:32:34.901Z,7.60
2023-03-14T09:33:37.811Z,7.50
2023-03-14T09:34:39.596Z,7.50
2023-03-14T09:35:41.448Z,7.50
2023-03-14T09:36:45.303Z,7.40
2023-03-14T09:37:47.212Z,7.40
2023-03-14T09:38:49.216Z,7.30
2023-03-14T09:39:50.970Z,7.30
2023-03-14T09:40:54.156Z,7.30
2023-03-14T09:41:58.799Z,7.30
2023-03-14T09:43:01.012Z,7.30
2023-03-14T09:44:13.074Z,7.20
2023-03-14T09:45:26.775Z,7.20
2023-03-14T09:46:30.042Z,7.20
2023-03-14T09:47:33.486Z,7.30
2023-03-14T09:48:36.194Z,7.30
2023-03-14T09:49:41.900Z,7.30
2023-03-14T09:50:49.103Z,7.40
2023-03-14T09:51:54.581Z,7.40
2023-03-14T09:53:04.301Z,7.50
2023-03-14T09:54:06.976Z,7.60
2023-03-14T09:55:19.127Z,7.60
2023-03-14T09:56:32.320Z,7.60
2023-03-14T09:57:37.187Z,7.60
2023-03-14T09:58:43.375Z,7.60
2023-03-14T09:59:47.872Z,7.60
2023-03-14T10:00:56.765Z,7.60
2023-03-14T10:02:11.978Z,7.60
2023-03-14T10:03:13.646Z,7.60
2023-03-14T10:04:20.000Z,7.70
2023-03-14T10:05:25.191Z,7.70
2023-03-14T10:06:31.840Z,7.70
2023-03-14T10:07:34.136Z,7.80
2023-03-14T10:08:36.190Z,7.80
2023-03-14T10:09:39.428Z,7.90
2023-03-14T10:10:43.156Z,7.90
2023-03-14T10:11:45.122Z,7.90
2023-03-14T10:12:49.216Z,7.90
2023-03-14T10:14:06.522Z,7.90
2023-03-14T10:15:13.359Z,8.00
2023-03-14T10:16:15.165Z,7.90
2023-03-14T10:17:18.896Z,8.00
2023-03-14T10:18:21.108Z,8.00
2023-03-14T10:19:22.815Z,8.00
2023-03-14T10:20:34.980Z,8.00
2023-03-14T10:21:42.503Z,8.00
2023-03-14T10:22:44.567Z,7.90
2023-03-14T10:23:49.147Z,7.90
2023-03-14T10:24:55.136Z,7.80
2023-03-14T10:26:25.096Z,7.70
2023-03-14T10:27:35.816Z,7.70
2023-03-14T10:28:49.050Z,7.60
2023-03-14T10:30:29.781Z,7.50
2023-03-14T10:32:54.392Z,7.30
2023-03-14T10:34:03.448Z,7.30
2023-03-14T10:35:17.163Z,7.20
2023-03-14T10:36:27.920Z,7.20
2023-03-14T10:37:29.833Z,7.10
2023-03-14T10:38:34.426Z,7.10
2023-03-14T10:39:54.503Z,7.10
2023-03-14T10:40:58.616Z,7.10
2023-03-14T10:42:07.825Z,7.10
2023-03-14T10:43:16.134Z,7.20
2023-03-14T10:44:22.798Z,7.20
2023-03-14T10:45:46.688Z,7.30
2023-03-14T10:46:59.501Z,7.40
2023-03-14T10:48:30.134Z,7.50
2023-03-14T10:49:37.282Z,7.60
2023-03-14T10:50:48.645Z,7.80
2023-03-14T10:51:50.640Z,7.90
2023-03-14T10:53:03.134Z,8.00
2023-03-14T10:54:15.157Z,8.00
2023-03-14T10:55:16.976Z,8.10
2023-03-14T10:56:20.933Z,8.10
2023-03-14T10:57:22.900Z,8.10
2023-03-14T10:58:31.691Z,8.10
2023-03-14T10:59:38.540Z,8.20
2023-03-14T11:00:40.314Z,8.20
2023-03-14T11:02:01.200Z,8.20
2023-03-14T11:03:11.119Z,8.30
2023-03-14T11:04:41.212Z,8.40
2023-03-14T11:05:47.877Z,8.50
2023-03-14T11:07:05.934Z,8.50
2023-03-14T11:08:26.042Z,8.50
2023-03-14T11:09:42.257Z,8.40
2023-03-14T11:10:47.906Z,8.40
2023-03-14T11:11:49.812Z,8.30
2023-03-14T11:13:08.191Z,8.20
2023-03-14T11:14:16.006Z,8.10
2023-03-14T11:15:24.507Z,8.10
2023-03-14T11:16:43.202Z,8.10
2023-03-14T11:18:13.351Z,8.00
2023-03-14T11:19:30.232Z,8.00
2023-03-14T11:20:56.344Z,8.00
2023-03-14T11:22:22.588Z,7.90
2023-03-14T11:23:40.587Z,7.90
2023-03-14T11:24:58.685Z,8.00
2023-03-14T11:26:20.584Z,7.90
2023-03-14T11:27:44.204Z,8.00
2023-03-14T11:28:54.037Z,8.00
2023-03-14T11:30:02.526Z,8.10
2023-03-14T11:31:29.354Z,8.10
2023-03-14T11:32:59.094Z,8.20
2023-03-14T11:34:12.825Z,8.30
2023-03-14T11:35:35.593Z,8.40
2023-03-14T11:36:47.305Z,8.40
2023-03-14T11:38:14.035Z,8.40
2023-03-14T11:39:17.815Z,8.40
2023-03-14T11:40:23.180Z,8.40
2023-03-14T11:41:36.358Z,8.50
2023-03-14T11:42:39.771Z,8.40
2023-03-14T11:43:47.236Z,8.40
2023-03-14T11:44:50.329Z,8.50
2023-03-14T11:45:55.746Z,8.50
2023-03-14T11:47:28.244Z,8.60
2023-03-14T11:48:38.116Z,8.60
2023-03-14T11:50:00.882Z,8.70
2023-03-14T11:51:09.494Z,8.80
2023-03-14T11:52:18.206Z,8.80
2023-03-14T11:55:12.120Z,8.90
2023-03-14T11:56:23.893Z,8.90
2023-03-14T11:57:26.196Z,8.90
2023-03-14T11:58:35.850Z,8.90
2023-03-14T12:00:13.455Z,8.80
2023-03-14T12:01:18.913Z,8.70
2023-03-14T12:02:31.828Z,8.60
2023-03-14T12:03:43.206Z,8.60
2023-03-14T12:05:13.299Z,8.50
2023-03-14T12:06:44.911Z,8.50
2023-03-14T12:08:10.754Z,8.40
2023-03-14T12:09:13.537Z,8.40
2023-03-14T12:10:15.636Z,8.40
2023-03-14T12:11:53.813Z,8.40
2023-03-14T12:12:55.775Z,8.50
2023-03-14T12:13:57.738Z,8.50
2023-03-14T12:15:01.924Z,8.50
2023-03-14T12:16:08.407Z,8.50
2023-03-14T12:17:36.059Z,8.50
2023-03-14T12:18:40.047Z,8.50
2023-03-14T12:19:42.872Z,8.40
2023-03-14T12:20:56.885Z,8.40
2023-03-14T12:21:58.751Z,8.40
2023-03-14T12:23:06.721Z,8.40
2023-03-14T12:24:20.454Z,8.40
2023-03-14T12:25:26.781Z,8.40
2023-03-14T12:26:51.044Z,8.40
2023-03-14T12:27:56.050Z,8.40
2023-03-14T12:28:57.853Z,8.40
2023-03-14T12:30:03.782Z,8.50
2023-03-14T12:31:31.456Z,8.50
2023-03-14T12:32:33.506Z,8.50
2023-03-14T12:33:36.008Z,8.60
2023-03-14T12:34:43.870Z,8.70
2023-03-14T12:35:57.938Z,8.70
2023-03-14T12:37:07.257Z,8.80
2023-03-14T12:38:17.322Z,8.80
2023-03-14T12:39:57.380Z,8.90
2023-03-14T12:41:24.266Z,8.90
2023-03-14T12:42:50.540Z,8.90
2023-03-14T12:43:52.445Z,8.80
2023-03-14T12:44:54.208Z,8.70
2023-03-14T12:46:25.463Z,8.70
2023-03-14T12:47:27.280Z,8.60
2023-03-14T12:48:29.433Z,8.50
2023-03-14T12:49:34.049Z,8.40
2023-03-14T12:50:42.651Z,8.30
2023-03-14T12:51:45.037Z,8.30
2023-03-14T12:53:14.994Z,8.20
2023-03-14T12:54:22.407Z,8.20
2023-03-14T12:55:54.706Z,8.10
2023-03-14T12:57:22.921Z,8.10
2023-03-14T12:58:45.442Z,8.10
2023-03-14T12:59:55.928Z,8.10
2023-03-14T13:01:01.933Z,8.10
2023-03-14T13:02:20.960Z,8.00
2023-03-14T13:03:37.091Z,8.00
2023-03-14T13:04:48.406Z,8.10
2023-03-14T13:05:59.101Z,8.10
2023-03-14T13:07:03.321Z,8.20
2023-03-14T13:08:07.069Z,8.20
2023-03-14T13:09:26.846Z,8.20
2023-03-14T13:10:37.903Z,8.20
2023-03-14T13:11:44.041Z,8.20
2023-03-14T13:12:55.097Z,8.20
2023-03-14T13:14:00.369Z,8.20
2023-03-14T13:15:04.847Z,8.20
2023-03-14T13:16:07.034Z,8.20
2023-03-14T13:18:41.067Z,8.10
2023-03-14T13:19:44.496Z,8.10
2023-03-14T13:20:55.827Z,8.10
2023-03-14T13:22:17.478Z,8.00
2023-03-14T13:23:31.027Z,8.00
2023-03-14T13:24:36.230Z,7.90
2023-03-14T13:25:38.455Z,7.90
2023-03-14T13:26:47.151Z,7.80
2023-03-14T13:27:49.698Z,7.80
2023-03-14T13:28:51.647Z,7.80
2023-03-14T13:29:53.736Z,7.70
2023-03-14T13:31:02.351Z,7.70
2023-03-14T13:32:20.313Z,7.70
2023-03-14T13:33:24.078Z,7.70
2023-03-14T13:34:31.941Z,7.70
2023-03-14T13:35:48.854Z,7.70
2023-03-14T13:36:53.475Z,7.70
2023-03-14T13:38:11.150Z,7.70
2023-03-14T13:39:25.723Z,7.70
2023-03-14T13:40:33.443Z,7.70
2023-03-14T13:41:35.269Z,7.70
2023-03-14T13:42:37.774Z,7.80
2023-03-14T13:43:45.343Z,7.80
2023-03-14T13:44:47.629Z,7.90
2023-03-14T13:46:15.391Z,7.90
2023-03-14T13:47:19.880Z,8.00
2023-03-14T13:48:23.392Z,8.00
2023-03-14T13:49:26.908Z,8.00
2023-03-14T13:50:29.175Z,8.10
2023-03-14T13:51:34.392Z,8.10
2023-03-14T13:52:39.516Z,8.00
2023-03-14T13:53:45.493Z,8.00
2023-03-14T13:54:47.767Z,8.00
2023-03-14T13:55:51.586Z,8.00
2023-03-14T13:57:06.821Z,8.00
2023-03-14T13:58:26.966Z,8.00
2023-03-14T13:59:32.001Z,8.00
2023-03-14T14:00:37.586Z,7.90
2023-03-14T14:01:39.721Z,7.90
2023-03-14T14:02:41.680Z,8.00
2023-03-14T14:03:46.638Z,7.90
2023-03-14T14:04:48.905Z,7.90
2023-03-14T14:05:51.133Z,7.90
2023-03-14T14:06:59.103Z,7.90
2023-03-14T14:08:03.571Z,7.90
2023-03-14T14:09:20.652Z,7.80
2023-03-14T14:10:23.716Z,7.80
2023-03-14T14:12:07.442Z,7.70
2023-03-14T14:13:16.892Z,7.70
2023-03-14T14:14:30.343Z,7.70
2023-03-14T14:15:38.078Z,7.70
2023-03-14T14:16:40.596Z,7.60
2023-03-14T14:17:47.065Z,7.60
2023-03-14T14:18:51.533Z,7.60
2023-03-14T14:19:54.952Z,7.60
2023-03-14T14:20:59.628Z,7.60
2023-03-14T14:22:02.939Z,7.60
2023-03-14T14:23:10.392Z,7.60
2023-03-14T14:24:16.002Z,7.60
2023-03-14T14:25:18.372Z,7.60
2023-03-14T14:26:20.802Z,7.60
2023-03-14T14:27:38.925Z,7.60
2023-03-14T14:28:41.649Z,7.60
2023-03-14T14:29:44.029Z,7.60
2023-03-14T14:30:46.325Z,7.60
2023-03-14T14:31:48.300Z,7.70
2023-03-14T14:32:51.676Z,7.70
2023-03-14T14:33:57.007Z,7.70
2023-03-14T14:35:01.411Z,7.70
2023-03-14T14:36:03.432Z,7.70
2023-03-14T14:37:05.421Z,7.80
2023-03-14T14:38:18.200Z,7.80
2023-03-14T14:39:24.089Z,7.80
2023-03-14T14:40:31.041Z,7.80
2023-03-14T14:41:36.546Z,7.80
2023-03-14T14:42:42.017Z,7.80
2023-03-14T14:43:43.868Z,7.80
2023-03-14T14:44:46.594Z,7.70
2023-03-14T14:45:51.977Z,7.70
2023-03-14T14:46:56.380Z,7.70